sensor_id;sensor_type;location;lat;lon;timestamp;P1;durP1;ratioP1;P2;durP2;ratioP2
6306;SDS011;3186;54.062;9.962;2022-10-26T00:00:07;10.53;;;7.20;;
6306;SDS011;3186;54.062;9.962;2022-10-26T00:02:39;12.30;;;7.53;;
6306;SDS011;3186;54.062;9.962;2022-10-26T00:05:05;11.10;;;7.30;;
6306;SDS011;3186;54.062;9.962;2022-10-26T00:07:31;14.80;;;7.07;;
6306;SDS011;3186;54.062;9.962;2022-10-26T00:09:57;9.00;;;6.73;;
6306;SDS011;3186;54.062;9.962;2022-10-26T00:12:23;9.03;;;6.67;;
6306;SDS011;3186;54.062;9.962;2022-10-26T00:14:49;8.90;;;7.43;;
6306;SDS011;3186;54.062;9.962;2022-10-26T00:17:15;11.70;;;7.03;;
6306;SDS011;3186;54.062;9.962;2022-10-26T00:19:41;11.00;;;7.37;;
6306;SDS011;3186;54.062;9.962;2022-10-26T00:22:06;12.60;;;7.30;;
6306;SDS011;3186;54.062;9.962;2022-10-26T00:24:32;12.90;;;7.87;;
6306;SDS011;3186;54.062;9.962;2022-10-26T00:26:58;11.80;;;7.37;;
6306;SDS011;3186;54.062;9.962;2022-10-26T00:29:24;10.27;;;7.30;;
6306;SDS011;3186;54.062;9.962;2022-10-26T00:31:49;11.23;;;7.53;;
6306;SDS011;3186;54.062;9.962;2022-10-26T00:34:15;12.70;;;7.50;;
6306;SDS011;3186;54.062;9.962;2022-10-26T00:36:41;13.23;;;7.90;;
6306;SDS011;3186;54.062;9.962;2022-10-26T00:39:09;13.53;;;8.00;;
6306;SDS011;3186;54.062;9.962;2022-10-26T00:41:36;10.43;;;7.20;;
6306;SDS011;3186;54.062;9.962;2022-10-26T00:44:37;9.67;;;7.07;;
6306;SDS011;3186;54.062;9.962;2022-10-26T00:47:08;12.83;;;9.23;;
6306;SDS011;3186;54.062;9.962;2022-10-26T00:49:36;11.53;;;7.50;;
6306;SDS011;3186;54.062;9.962;2022-10-26T00:52:02;12.23;;;7.93;;
6306;SDS011;3186;54.062;9.962;2022-10-26T00:54:30;11.90;;;7.77;;
6306;SDS011;3186;54.062;9.962;2022-10-26T00:56:56;11.47;;;7.47;;
6306;SDS011;3186;54.062;9.962;2022-10-26T00:59:22;14.13;;;7.53;;
6306;SDS011;3186;54.062;9.962;2022-10-26T01:01:48;12.20;;;7.33;;
6306;SDS011;3186;54.062;9.962;2022-10-26T01:04:16;10.70;;;7.83;;
6306;SDS011;3186;54.062;9.962;2022-10-26T01:06:43;11.80;;;7.03;;
6306;SDS011;3186;54.062;9.962;2022-10-26T01:09:10;14.33;;;7.87;;
6306;SDS011;3186;54.062;9.962;2022-10-26T01:11:37;14.93;;;8.13;;
6306;SDS011;3186;54.062;9.962;2022-10-26T01:14:04;14.73;;;7.87;;
6306;SDS011;3186;54.062;9.962;2022-10-26T01:27:22;12.57;;;7.60;;
6306;SDS011;3186;54.062;9.962;2022-10-26T01:30:17;12.07;;;7.87;;
6306;SDS011;3186;54.062;9.962;2022-10-26T01:35:30;16.03;;;7.30;;
6306;SDS011;3186;54.062;9.962;2022-10-26T01:38:15;10.93;;;7.73;;
6306;SDS011;3186;54.062;9.962;2022-10-26T01:40:46;14.90;;;8.13;;
6306;SDS011;3186;54.062;9.962;2022-10-26T01:43:18;14.40;;;8.20;;
6306;SDS011;3186;54.062;9.962;2022-10-26T01:45:45;12.17;;;7.90;;
6306;SDS011;3186;54.062;9.962;2022-10-26T01:48:13;13.70;;;8.17;;
6306;SDS011;3186;54.062;9.962;2022-10-26T01:50:42;12.47;;;8.40;;
6306;SDS011;3186;54.062;9.962;2022-10-26T01:53:14;10.10;;;7.70;;
6306;SDS011;3186;54.062;9.962;2022-10-26T01:55:48;10.90;;;7.60;;
6306;SDS011;3186;54.062;9.962;2022-10-26T01:58:26;13.70;;;8.10;;
6306;SDS011;3186;54.062;9.962;2022-10-26T02:01:15;14.20;;;8.40;;
6306;SDS011;3186;54.062;9.962;2022-10-26T02:06:54;12.20;;;8.57;;
6306;SDS011;3186;54.062;9.962;2022-10-26T02:15:19;13.47;;;8.37;;
6306;SDS011;3186;54.062;9.962;2022-10-26T02:18:08;14.20;;;8.87;;
6306;SDS011;3186;54.062;9.962;2022-10-26T02:21:07;13.73;;;8.20;;
6306;SDS011;3186;54.062;9.962;2022-10-26T02:23:37;14.37;;;8.37;;
6306;SDS011;3186;54.062;9.962;2022-10-26T02:26:06;13.40;;;8.70;;
6306;SDS011;3186;54.062;9.962;2022-10-26T02:28:39;12.23;;;8.13;;
6306;SDS011;3186;54.062;9.962;2022-10-26T02:31:08;12.07;;;8.40;;
6306;SDS011;3186;54.062;9.962;2022-10-26T02:33:39;14.37;;;8.53;;
6306;SDS011;3186;54.062;9.962;2022-10-26T02:36:07;12.07;;;8.57;;
6306;SDS011;3186;54.062;9.962;2022-10-26T02:38:38;11.87;;;8.27;;
6306;SDS011;3186;54.062;9.962;2022-10-26T02:41:06;12.17;;;9.07;;
6306;SDS011;3186;54.062;9.962;2022-10-26T02:43:36;12.03;;;8.40;;
6306;SDS011;3186;54.062;9.962;2022-10-26T02:46:09;12.87;;;8.50;;
6306;SDS011;3186;54.062;9.962;2022-10-26T02:48:39;15.67;;;8.93;;
6306;SDS011;3186;54.062;9.962;2022-10-26T02:56:29;12.53;;;8.73;;
6306;SDS011;3186;54.062;9.962;2022-10-26T02:58:58;12.37;;;8.43;;
6306;SDS011;3186;54.062;9.962;2022-10-26T03:01:28;14.20;;;8.90;;
6306;SDS011;3186;54.062;9.962;2022-10-26T03:03:57;14.63;;;8.53;;
6306;SDS011;3186;54.062;9.962;2022-10-26T03:06:24;12.93;;;8.77;;
6306;SDS011;3186;54.062;9.962;2022-10-26T03:08:50;11.13;;;8.43;;
6306;SDS011;3186;54.062;9.962;2022-10-26T03:11:16;15.67;;;8.37;;
6306;SDS011;3186;54.062;9.962;2022-10-26T03:13:42;14.20;;;9.37;;
6306;SDS011;3186;54.062;9.962;2022-10-26T03:16:08;11.63;;;8.40;;
6306;SDS011;3186;54.062;9.962;2022-10-26T03:18:35;15.37;;;8.93;;
6306;SDS011;3186;54.062;9.962;2022-10-26T03:21:01;13.03;;;8.87;;
6306;SDS011;3186;54.062;9.962;2022-10-26T03:23:26;17.33;;;8.77;;
6306;SDS011;3186;54.062;9.962;2022-10-26T03:25:58;16.70;;;8.90;;
6306;SDS011;3186;54.062;9.962;2022-10-26T03:28:25;12.23;;;8.00;;
6306;SDS011;3186;54.062;9.962;2022-10-26T03:30:51;10.77;;;8.37;;
6306;SDS011;3186;54.062;9.962;2022-10-26T03:33:16;11.87;;;8.67;;
6306;SDS011;3186;54.062;9.962;2022-10-26T03:35:42;13.23;;;9.30;;
6306;SDS011;3186;54.062;9.962;2022-10-26T03:38:08;14.37;;;8.47;;
6306;SDS011;3186;54.062;9.962;2022-10-26T03:40:35;15.37;;;9.13;;
6306;SDS011;3186;54.062;9.962;2022-10-26T03:43:01;15.67;;;8.60;;
6306;SDS011;3186;54.062;9.962;2022-10-26T03:45:27;12.93;;;8.90;;
6306;SDS011;3186;54.062;9.962;2022-10-26T03:47:53;14.13;;;8.60;;
6306;SDS011;3186;54.062;9.962;2022-10-26T03:50:20;13.43;;;8.50;;
6306;SDS011;3186;54.062;9.962;2022-10-26T03:52:47;11.83;;;8.50;;
6306;SDS011;3186;54.062;9.962;2022-10-26T03:55:13;13.83;;;9.40;;
6306;SDS011;3186;54.062;9.962;2022-10-26T03:57:43;15.43;;;9.90;;
6306;SDS011;3186;54.062;9.962;2022-10-26T04:00:11;12.73;;;9.30;;
6306;SDS011;3186;54.062;9.962;2022-10-26T04:02:45;14.73;;;9.07;;
6306;SDS011;3186;54.062;9.962;2022-10-26T04:05:17;16.60;;;10.10;;
6306;SDS011;3186;54.062;9.962;2022-10-26T04:07:43;18.93;;;9.50;;
6306;SDS011;3186;54.062;9.962;2022-10-26T04:10:15;16.53;;;9.30;;
6306;SDS011;3186;54.062;9.962;2022-10-26T04:12:41;18.47;;;10.33;;
6306;SDS011;3186;54.062;9.962;2022-10-26T04:15:07;12.70;;;8.70;;
6306;SDS011;3186;54.062;9.962;2022-10-26T04:17:34;14.13;;;8.67;;
6306;SDS011;3186;54.062;9.962;2022-10-26T04:20:03;13.00;;;8.87;;
6306;SDS011;3186;54.062;9.962;2022-10-26T04:22:29;16.70;;;9.10;;
6306;SDS011;3186;54.062;9.962;2022-10-26T04:24:54;13.87;;;9.23;;
6306;SDS011;3186;54.062;9.962;2022-10-26T04:27:20;13.87;;;8.73;;
6306;SDS011;3186;54.062;9.962;2022-10-26T04:29:46;15.13;;;8.93;;
6306;SDS011;3186;54.062;9.962;2022-10-26T04:32:12;14.47;;;8.53;;
6306;SDS011;3186;54.062;9.962;2022-10-26T04:34:37;13.17;;;8.33;;
6306;SDS011;3186;54.062;9.962;2022-10-26T04:37:03;11.10;;;7.97;;
6306;SDS011;3186;54.062;9.962;2022-10-26T04:39:29;15.93;;;10.53;;
6306;SDS011;3186;54.062;9.962;2022-10-26T04:41:55;14.97;;;9.70;;
6306;SDS011;3186;54.062;9.962;2022-10-26T04:44:20;14.87;;;8.90;;
6306;SDS011;3186;54.062;9.962;2022-10-26T04:46:46;14.80;;;9.83;;
6306;SDS011;3186;54.062;9.962;2022-10-26T04:49:12;15.77;;;9.67;;
6306;SDS011;3186;54.062;9.962;2022-10-26T04:51:38;16.97;;;9.47;;
6306;SDS011;3186;54.062;9.962;2022-10-26T04:54:04;13.67;;;8.77;;
6306;SDS011;3186;54.062;9.962;2022-10-26T04:56:30;14.47;;;8.73;;
6306;SDS011;3186;54.062;9.962;2022-10-26T04:58:56;13.33;;;8.43;;
6306;SDS011;3186;54.062;9.962;2022-10-26T05:01:21;14.30;;;8.80;;
6306;SDS011;3186;54.062;9.962;2022-10-26T05:03:48;12.77;;;7.80;;
6306;SDS011;3186;54.062;9.962;2022-10-26T05:06:14;12.40;;;8.17;;
6306;SDS011;3186;54.062;9.962;2022-10-26T05:08:40;17.60;;;8.93;;
6306;SDS011;3186;54.062;9.962;2022-10-26T05:11:06;12.97;;;8.77;;
6306;SDS011;3186;54.062;9.962;2022-10-26T05:13:32;13.83;;;8.20;;
6306;SDS011;3186;54.062;9.962;2022-10-26T05:15:58;12.73;;;8.50;;
6306;SDS011;3186;54.062;9.962;2022-10-26T05:18:23;18.97;;;10.60;;
6306;SDS011;3186;54.062;9.962;2022-10-26T05:20:53;15.37;;;10.37;;
6306;SDS011;3186;54.062;9.962;2022-10-26T05:23:19;16.77;;;10.47;;
6306;SDS011;3186;54.062;9.962;2022-10-26T05:25:46;18.63;;;9.73;;
6306;SDS011;3186;54.062;9.962;2022-10-26T05:28:12;18.53;;;9.80;;
6306;SDS011;3186;54.062;9.962;2022-10-26T05:30:39;16.80;;;9.20;;
6306;SDS011;3186;54.062;9.962;2022-10-26T05:33:09;17.17;;;9.63;;
6306;SDS011;3186;54.062;9.962;2022-10-26T05:35:36;15.43;;;9.90;;
6306;SDS011;3186;54.062;9.962;2022-10-26T05:38:09;14.57;;;8.73;;
6306;SDS011;3186;54.062;9.962;2022-10-26T05:40:46;15.30;;;9.03;;
6306;SDS011;3186;54.062;9.962;2022-10-26T05:43:16;14.33;;;8.30;;
6306;SDS011;3186;54.062;9.962;2022-10-26T05:45:42;17.83;;;9.60;;
6306;SDS011;3186;54.062;9.962;2022-10-26T05:48:08;15.23;;;8.80;;
6306;SDS011;3186;54.062;9.962;2022-10-26T05:50:34;14.57;;;8.33;;
6306;SDS011;3186;54.062;9.962;2022-10-26T05:53:00;16.63;;;8.40;;
6306;SDS011;3186;54.062;9.962;2022-10-26T05:55:26;16.17;;;8.10;;
6306;SDS011;3186;54.062;9.962;2022-10-26T05:57:52;14.13;;;8.53;;
6306;SDS011;3186;54.062;9.962;2022-10-26T06:00:19;14.17;;;8.43;;
6306;SDS011;3186;54.062;9.962;2022-10-26T06:08:22;11.53;;;7.13;;
6306;SDS011;3186;54.062;9.962;2022-10-26T06:10:49;11.77;;;8.10;;
6306;SDS011;3186;54.062;9.962;2022-10-26T06:13:18;13.73;;;8.37;;
6306;SDS011;3186;54.062;9.962;2022-10-26T06:15:55;14.53;;;8.37;;
6306;SDS011;3186;54.062;9.962;2022-10-26T06:18:46;16.93;;;8.83;;
6306;SDS011;3186;54.062;9.962;2022-10-26T06:21:28;18.27;;;8.63;;
6306;SDS011;3186;54.062;9.962;2022-10-26T06:23:56;12.83;;;7.80;;
6306;SDS011;3186;54.062;9.962;2022-10-26T06:26:35;13.03;;;7.33;;
6306;SDS011;3186;54.062;9.962;2022-10-26T06:32:14;13.33;;;8.67;;
6306;SDS011;3186;54.062;9.962;2022-10-26T06:34:45;11.30;;;8.33;;
6306;SDS011;3186;54.062;9.962;2022-10-26T06:37:14;13.13;;;8.30;;
6306;SDS011;3186;54.062;9.962;2022-10-26T06:39:42;14.10;;;8.67;;
6306;SDS011;3186;54.062;9.962;2022-10-26T06:42:11;12.60;;;8.30;;
6306;SDS011;3186;54.062;9.962;2022-10-26T06:44:37;14.13;;;8.70;;
6306;SDS011;3186;54.062;9.962;2022-10-26T06:50:36;12.50;;;7.53;;
6306;SDS011;3186;54.062;9.962;2022-10-26T06:55:49;15.70;;;8.63;;
6306;SDS011;3186;54.062;9.962;2022-10-26T06:58:19;11.40;;;7.87;;
6306;SDS011;3186;54.062;9.962;2022-10-26T07:00:47;13.53;;;8.87;;
6306;SDS011;3186;54.062;9.962;2022-10-26T07:03:14;11.47;;;7.73;;
6306;SDS011;3186;54.062;9.962;2022-10-26T07:05:41;11.90;;;7.33;;
6306;SDS011;3186;54.062;9.962;2022-10-26T07:08:07;11.33;;;7.03;;
6306;SDS011;3186;54.062;9.962;2022-10-26T07:10:33;11.90;;;7.70;;
6306;SDS011;3186;54.062;9.962;2022-10-26T07:13:06;10.33;;;7.00;;
6306;SDS011;3186;54.062;9.962;2022-10-26T07:15:33;13.63;;;7.33;;
6306;SDS011;3186;54.062;9.962;2022-10-26T07:18:01;13.27;;;7.07;;
6306;SDS011;3186;54.062;9.962;2022-10-26T07:20:30;11.20;;;7.50;;
6306;SDS011;3186;54.062;9.962;2022-10-26T07:22:56;12.33;;;7.80;;
6306;SDS011;3186;54.062;9.962;2022-10-26T07:25:23;13.47;;;7.67;;
6306;SDS011;3186;54.062;9.962;2022-10-26T07:27:50;11.17;;;7.20;;
6306;SDS011;3186;54.062;9.962;2022-10-26T07:30:16;12.30;;;7.57;;
6306;SDS011;3186;54.062;9.962;2022-10-26T07:32:42;12.13;;;7.60;;
6306;SDS011;3186;54.062;9.962;2022-10-26T07:35:08;11.73;;;7.17;;
6306;SDS011;3186;54.062;9.962;2022-10-26T07:37:34;9.73;;;6.83;;
6306;SDS011;3186;54.062;9.962;2022-10-26T07:40:00;11.13;;;7.57;;
6306;SDS011;3186;54.062;9.962;2022-10-26T07:42:26;9.27;;;7.10;;
6306;SDS011;3186;54.062;9.962;2022-10-26T07:44:51;12.80;;;7.70;;
6306;SDS011;3186;54.062;9.962;2022-10-26T07:47:17;10.60;;;7.07;;
6306;SDS011;3186;54.062;9.962;2022-10-26T07:49:43;12.20;;;7.63;;
6306;SDS011;3186;54.062;9.962;2022-10-26T07:52:09;14.67;;;7.63;;
6306;SDS011;3186;54.062;9.962;2022-10-26T07:54:35;12.00;;;7.90;;
6306;SDS011;3186;54.062;9.962;2022-10-26T07:57:01;14.80;;;10.27;;
6306;SDS011;3186;54.062;9.962;2022-10-26T07:59:27;16.63;;;9.03;;
6306;SDS011;3186;54.062;9.962;2022-10-26T08:01:53;20.53;;;12.17;;
6306;SDS011;3186;54.062;9.962;2022-10-26T08:04:19;14.60;;;7.83;;
6306;SDS011;3186;54.062;9.962;2022-10-26T08:06:44;15.23;;;8.90;;
6306;SDS011;3186;54.062;9.962;2022-10-26T08:09:11;21.93;;;11.00;;
6306;SDS011;3186;54.062;9.962;2022-10-26T08:11:37;14.50;;;8.60;;
6306;SDS011;3186;54.062;9.962;2022-10-26T08:14:03;18.47;;;9.27;;
6306;SDS011;3186;54.062;9.962;2022-10-26T08:16:29;16.27;;;9.90;;
6306;SDS011;3186;54.062;9.962;2022-10-26T08:18:55;17.83;;;10.20;;
6306;SDS011;3186;54.062;9.962;2022-10-26T08:21:21;17.43;;;10.53;;
6306;SDS011;3186;54.062;9.962;2022-10-26T08:23:47;29.43;;;15.03;;
6306;SDS011;3186;54.062;9.962;2022-10-26T08:26:13;25.00;;;13.70;;
6306;SDS011;3186;54.062;9.962;2022-10-26T08:28:39;28.63;;;14.53;;
6306;SDS011;3186;54.062;9.962;2022-10-26T08:31:06;29.00;;;14.93;;
6306;SDS011;3186;54.062;9.962;2022-10-26T08:33:32;16.70;;;10.40;;
6306;SDS011;3186;54.062;9.962;2022-10-26T08:35:59;23.10;;;12.23;;
6306;SDS011;3186;54.062;9.962;2022-10-26T08:38:26;23.37;;;12.63;;
6306;SDS011;3186;54.062;9.962;2022-10-26T08:40:53;23.37;;;13.57;;
6306;SDS011;3186;54.062;9.962;2022-10-26T08:43:24;30.43;;;13.37;;
6306;SDS011;3186;54.062;9.962;2022-10-26T08:45:55;37.53;;;17.23;;
6306;SDS011;3186;54.062;9.962;2022-10-26T08:48:29;28.97;;;15.27;;
6306;SDS011;3186;54.062;9.962;2022-10-26T08:50:59;21.67;;;11.60;;
6306;SDS011;3186;54.062;9.962;2022-10-26T08:56:24;22.57;;;12.23;;
6306;SDS011;3186;54.062;9.962;2022-10-26T08:59:00;27.10;;;13.43;;
6306;SDS011;3186;54.062;9.962;2022-10-26T09:01:33;23.43;;;12.40;;
6306;SDS011;3186;54.062;9.962;2022-10-26T09:04:00;36.30;;;14.47;;
6306;SDS011;3186;54.062;9.962;2022-10-26T09:10:03;27.77;;;13.00;;
6306;SDS011;3186;54.062;9.962;2022-10-26T09:12:13;24.23;;;13.07;;
6306;SDS011;3186;54.062;9.962;2022-10-26T09:18:01;23.77;;;12.80;;
6306;SDS011;3186;54.062;9.962;2022-10-26T09:26:13;19.40;;;9.87;;
6306;SDS011;3186;54.062;9.962;2022-10-26T09:28:43;21.03;;;10.27;;
6306;SDS011;3186;54.062;9.962;2022-10-26T09:31:12;19.87;;;9.50;;
6306;SDS011;3186;54.062;9.962;2022-10-26T09:33:41;18.40;;;10.33;;
6306;SDS011;3186;54.062;9.962;2022-10-26T09:36:08;22.47;;;9.93;;
6306;SDS011;3186;54.062;9.962;2022-10-26T09:38:49;16.80;;;8.97;;
6306;SDS011;3186;54.062;9.962;2022-10-26T09:44:07;20.73;;;9.43;;
6306;SDS011;3186;54.062;9.962;2022-10-26T09:46:46;18.50;;;8.67;;
6306;SDS011;3186;54.062;9.962;2022-10-26T09:49:20;17.50;;;9.17;;
6306;SDS011;3186;54.062;9.962;2022-10-26T09:51:55;22.73;;;9.20;;
6306;SDS011;3186;54.062;9.962;2022-10-26T09:54:21;13.07;;;7.90;;
6306;SDS011;3186;54.062;9.962;2022-10-26T09:56:49;17.43;;;9.57;;
6306;SDS011;3186;54.062;9.962;2022-10-26T09:59:20;20.40;;;10.13;;
6306;SDS011;3186;54.062;9.962;2022-10-26T10:01:47;24.53;;;11.03;;
6306;SDS011;3186;54.062;9.962;2022-10-26T10:06:43;23.50;;;10.77;;
6306;SDS011;3186;54.062;9.962;2022-10-26T10:09:10;19.07;;;10.70;;
6306;SDS011;3186;54.062;9.962;2022-10-26T10:14:25;21.77;;;10.47;;
6306;SDS011;3186;54.062;9.962;2022-10-26T10:17:00;14.60;;;9.60;;
6306;SDS011;3186;54.062;9.962;2022-10-26T10:19:36;13.87;;;8.63;;
6306;SDS011;3186;54.062;9.962;2022-10-26T10:24:52;14.20;;;9.80;;
6306;SDS011;3186;54.062;9.962;2022-10-26T10:27:22;15.17;;;9.23;;
6306;SDS011;3186;54.062;9.962;2022-10-26T10:32:19;16.53;;;9.07;;
6306;SDS011;3186;54.062;9.962;2022-10-26T10:34:46;16.43;;;8.63;;
6306;SDS011;3186;54.062;9.962;2022-10-26T10:37:28;21.93;;;9.33;;
6306;SDS011;3186;54.062;9.962;2022-10-26T10:40:16;15.63;;;9.43;;
6306;SDS011;3186;54.062;9.962;2022-10-26T10:42:48;13.87;;;8.93;;
6306;SDS011;3186;54.062;9.962;2022-10-26T10:45:26;14.23;;;8.30;;
6306;SDS011;3186;54.062;9.962;2022-10-26T10:48:01;15.87;;;8.67;;
6306;SDS011;3186;54.062;9.962;2022-10-26T10:50:36;17.37;;;9.50;;
6306;SDS011;3186;54.062;9.962;2022-10-26T10:53:13;15.90;;;8.93;;
6306;SDS011;3186;54.062;9.962;2022-10-26T10:55:47;13.10;;;9.37;;
6306;SDS011;3186;54.062;9.962;2022-10-26T10:58:48;15.27;;;9.43;;
6306;SDS011;3186;54.062;9.962;2022-10-26T11:01:21;19.23;;;8.90;;
6306;SDS011;3186;54.062;9.962;2022-10-26T11:06:20;15.33;;;8.10;;
6306;SDS011;3186;54.062;9.962;2022-10-26T11:11:33;16.07;;;7.83;;
6306;SDS011;3186;54.062;9.962;2022-10-26T11:17:06;14.67;;;6.70;;
6306;SDS011;3186;54.062;9.962;2022-10-26T11:19:44;16.40;;;7.53;;
6306;SDS011;3186;54.062;9.962;2022-10-26T11:22:53;13.37;;;5.70;;
6306;SDS011;3186;54.062;9.962;2022-10-26T11:30:55;11.00;;;6.33;;
6306;SDS011;3186;54.062;9.962;2022-10-26T11:33:25;11.37;;;5.80;;
6306;SDS011;3186;54.062;9.962;2022-10-26T11:40:54;11.17;;;5.40;;
6306;SDS011;3186;54.062;9.962;2022-10-26T11:48:55;11.80;;;5.53;;
6306;SDS011;3186;54.062;9.962;2022-10-26T11:53:55;7.57;;;3.90;;
6306;SDS011;3186;54.062;9.962;2022-10-26T11:56:30;7.63;;;4.23;;
6306;SDS011;3186;54.062;9.962;2022-10-26T11:59:02;10.43;;;4.77;;
6306;SDS011;3186;54.062;9.962;2022-10-26T12:01:29;9.80;;;4.10;;
6306;SDS011;3186;54.062;9.962;2022-10-26T12:03:57;11.87;;;4.77;;
6306;SDS011;3186;54.062;9.962;2022-10-26T12:06:26;6.07;;;3.20;;
6306;SDS011;3186;54.062;9.962;2022-10-26T12:08:57;8.83;;;3.97;;
6306;SDS011;3186;54.062;9.962;2022-10-26T12:11:47;5.53;;;3.53;;
6306;SDS011;3186;54.062;9.962;2022-10-26T12:14:23;6.50;;;3.87;;
6306;SDS011;3186;54.062;9.962;2022-10-26T12:22:08;6.07;;;3.27;;
6306;SDS011;3186;54.062;9.962;2022-10-26T12:24:42;6.03;;;3.43;;
6306;SDS011;3186;54.062;9.962;2022-10-26T12:27:28;6.27;;;3.13;;
6306;SDS011;3186;54.062;9.962;2022-10-26T12:30:42;11.73;;;4.80;;
6306;SDS011;3186;54.062;9.962;2022-10-26T12:37:55;6.93;;;2.60;;
6306;SDS011;3186;54.062;9.962;2022-10-26T12:42:57;7.63;;;3.50;;
6306;SDS011;3186;54.062;9.962;2022-10-26T12:45:46;4.57;;;3.00;;
6306;SDS011;3186;54.062;9.962;2022-10-26T12:48:41;6.13;;;2.87;;
6306;SDS011;3186;54.062;9.962;2022-10-26T12:59:26;5.77;;;2.57;;
6306;SDS011;3186;54.062;9.962;2022-10-26T13:07:46;12.83;;;4.73;;
6306;SDS011;3186;54.062;9.962;2022-10-26T13:12:50;5.70;;;2.20;;
6306;SDS011;3186;54.062;9.962;2022-10-26T13:18:18;5.23;;;2.40;;
6306;SDS011;3186;54.062;9.962;2022-10-26T13:23:27;5.07;;;2.30;;
6306;SDS011;3186;54.062;9.962;2022-10-26T13:26:02;3.93;;;2.03;;
6306;SDS011;3186;54.062;9.962;2022-10-26T13:33:50;4.03;;;1.80;;
6306;SDS011;3186;54.062;9.962;2022-10-26T13:36:26;5.00;;;2.10;;
6306;SDS011;3186;54.062;9.962;2022-10-26T13:38:53;5.50;;;2.47;;
6306;SDS011;3186;54.062;9.962;2022-10-26T13:41:32;7.30;;;2.40;;
6306;SDS011;3186;54.062;9.962;2022-10-26T13:44:07;5.40;;;2.07;;
6306;SDS011;3186;54.062;9.962;2022-10-26T13:46:40;6.07;;;2.33;;
6306;SDS011;3186;54.062;9.962;2022-10-26T13:49:12;7.87;;;1.97;;
6306;SDS011;3186;54.062;9.962;2022-10-26T13:51:47;4.90;;;1.90;;
6306;SDS011;3186;54.062;9.962;2022-10-26T13:54:17;5.40;;;2.50;;
6306;SDS011;3186;54.062;9.962;2022-10-26T13:57:14;12.57;;;4.67;;
6306;SDS011;3186;54.062;9.962;2022-10-26T13:59:59;9.07;;;2.83;;
6306;SDS011;3186;54.062;9.962;2022-10-26T14:02:39;3.90;;;2.03;;
6306;SDS011;3186;54.062;9.962;2022-10-26T14:05:08;6.17;;;2.10;;
6306;SDS011;3186;54.062;9.962;2022-10-26T14:07:44;6.33;;;2.00;;
6306;SDS011;3186;54.062;9.962;2022-10-26T14:10:28;7.37;;;2.40;;
6306;SDS011;3186;54.062;9.962;2022-10-26T14:12:57;8.57;;;2.00;;
6306;SDS011;3186;54.062;9.962;2022-10-26T14:15:29;7.00;;;2.40;;
6306;SDS011;3186;54.062;9.962;2022-10-26T14:17:57;5.67;;;2.20;;
6306;SDS011;3186;54.062;9.962;2022-10-26T14:20:26;2.80;;;2.00;;
6306;SDS011;3186;54.062;9.962;2022-10-26T14:22:53;4.90;;;2.00;;
6306;SDS011;3186;54.062;9.962;2022-10-26T14:25:20;5.10;;;1.83;;
6306;SDS011;3186;54.062;9.962;2022-10-26T14:27:50;3.70;;;1.97;;
6306;SDS011;3186;54.062;9.962;2022-10-26T14:32:52;3.70;;;1.83;;
6306;SDS011;3186;54.062;9.962;2022-10-26T14:35:23;2.87;;;1.77;;
6306;SDS011;3186;54.062;9.962;2022-10-26T14:37:57;5.17;;;3.17;;
6306;SDS011;3186;54.062;9.962;2022-10-26T14:40:27;6.23;;;2.43;;
6306;SDS011;3186;54.062;9.962;2022-10-26T14:42:56;5.83;;;2.00;;
6306;SDS011;3186;54.062;9.962;2022-10-26T14:47:58;3.47;;;2.20;;
6306;SDS011;3186;54.062;9.962;2022-10-26T14:50:26;4.27;;;1.90;;
6306;SDS011;3186;54.062;9.962;2022-10-26T14:52:56;6.03;;;1.93;;
6306;SDS011;3186;54.062;9.962;2022-10-26T14:55:28;7.13;;;2.40;;
6306;SDS011;3186;54.062;9.962;2022-10-26T14:58:13;5.87;;;2.40;;
6306;SDS011;3186;54.062;9.962;2022-10-26T15:03:51;8.10;;;2.40;;
6306;SDS011;3186;54.062;9.962;2022-10-26T15:09:04;5.37;;;2.40;;
6306;SDS011;3186;54.062;9.962;2022-10-26T15:11:31;3.97;;;2.23;;
6306;SDS011;3186;54.062;9.962;2022-10-26T15:13:59;5.87;;;2.37;;
6306;SDS011;3186;54.062;9.962;2022-10-26T15:16:26;5.10;;;2.33;;
6306;SDS011;3186;54.062;9.962;2022-10-26T15:18:55;6.07;;;2.70;;
6306;SDS011;3186;54.062;9.962;2022-10-26T15:21:36;13.27;;;2.87;;
6306;SDS011;3186;54.062;9.962;2022-10-26T15:24:20;10.27;;;3.97;;
6306;SDS011;3186;54.062;9.962;2022-10-26T15:26:54;8.03;;;2.97;;
6306;SDS011;3186;54.062;9.962;2022-10-26T15:29:34;6.00;;;2.63;;
6306;SDS011;3186;54.062;9.962;2022-10-26T15:32:01;3.97;;;2.50;;
6306;SDS011;3186;54.062;9.962;2022-10-26T15:34:29;6.10;;;3.00;;
6306;SDS011;3186;54.062;9.962;2022-10-26T15:36:55;4.37;;;2.77;;
6306;SDS011;3186;54.062;9.962;2022-10-26T15:39:20;6.70;;;3.23;;
6306;SDS011;3186;54.062;9.962;2022-10-26T15:41:47;9.23;;;3.23;;
6306;SDS011;3186;54.062;9.962;2022-10-26T15:44:15;5.00;;;2.40;;
6306;SDS011;3186;54.062;9.962;2022-10-26T15:46:51;4.93;;;2.50;;
6306;SDS011;3186;54.062;9.962;2022-10-26T15:49:18;3.63;;;2.70;;
6306;SDS011;3186;54.062;9.962;2022-10-26T15:51:45;5.10;;;2.43;;
6306;SDS011;3186;54.062;9.962;2022-10-26T15:54:12;4.23;;;2.40;;
6306;SDS011;3186;54.062;9.962;2022-10-26T15:56:38;3.37;;;2.30;;
6306;SDS011;3186;54.062;9.962;2022-10-26T15:59:12;3.10;;;2.37;;
6306;SDS011;3186;54.062;9.962;2022-10-26T16:01:42;6.40;;;2.63;;
6306;SDS011;3186;54.062;9.962;2022-10-26T16:04:09;5.63;;;2.00;;
6306;SDS011;3186;54.062;9.962;2022-10-26T16:06:38;2.40;;;1.90;;
6306;SDS011;3186;54.062;9.962;2022-10-26T16:09:06;3.03;;;2.13;;
6306;SDS011;3186;54.062;9.962;2022-10-26T16:11:34;3.00;;;2.20;;
6306;SDS011;3186;54.062;9.962;2022-10-26T16:14:00;4.03;;;2.33;;
6306;SDS011;3186;54.062;9.962;2022-10-26T16:16:26;4.53;;;2.30;;
6306;SDS011;3186;54.062;9.962;2022-10-26T16:18:52;6.70;;;2.30;;
6306;SDS011;3186;54.062;9.962;2022-10-26T16:21:20;4.13;;;2.80;;
6306;SDS011;3186;54.062;9.962;2022-10-26T16:23:47;6.13;;;2.90;;
6306;SDS011;3186;54.062;9.962;2022-10-26T16:26:18;7.10;;;3.20;;
6306;SDS011;3186;54.062;9.962;2022-10-26T16:28:44;8.17;;;2.40;;
6306;SDS011;3186;54.062;9.962;2022-10-26T16:31:11;6.50;;;2.43;;
6306;SDS011;3186;54.062;9.962;2022-10-26T16:33:38;4.10;;;2.63;;
6306;SDS011;3186;54.062;9.962;2022-10-26T16:36:04;9.87;;;3.17;;
6306;SDS011;3186;54.062;9.962;2022-10-26T16:38:31;4.73;;;2.80;;
6306;SDS011;3186;54.062;9.962;2022-10-26T16:43:37;7.33;;;3.00;;
6306;SDS011;3186;54.062;9.962;2022-10-26T16:46:05;5.23;;;2.77;;
6306;SDS011;3186;54.062;9.962;2022-10-26T16:48:33;6.03;;;2.90;;
6306;SDS011;3186;54.062;9.962;2022-10-26T16:53:36;8.00;;;3.33;;
6306;SDS011;3186;54.062;9.962;2022-10-26T16:56:03;4.17;;;2.40;;
6306;SDS011;3186;54.062;9.962;2022-10-26T16:58:30;5.07;;;2.90;;
6306;SDS011;3186;54.062;9.962;2022-10-26T17:00:56;3.90;;;2.30;;
6306;SDS011;3186;54.062;9.962;2022-10-26T17:03:22;5.57;;;2.80;;
6306;SDS011;3186;54.062;9.962;2022-10-26T17:05:53;3.80;;;2.50;;
6306;SDS011;3186;54.062;9.962;2022-10-26T17:08:26;6.53;;;3.00;;
6306;SDS011;3186;54.062;9.962;2022-10-26T17:10:53;2.83;;;2.30;;
6306;SDS011;3186;54.062;9.962;2022-10-26T17:13:19;5.43;;;2.80;;
6306;SDS011;3186;54.062;9.962;2022-10-26T17:15:46;5.20;;;3.10;;
6306;SDS011;3186;54.062;9.962;2022-10-26T17:18:12;7.83;;;2.83;;
6306;SDS011;3186;54.062;9.962;2022-10-26T17:20:38;5.37;;;3.60;;
6306;SDS011;3186;54.062;9.962;2022-10-26T17:23:04;10.60;;;3.33;;
6306;SDS011;3186;54.062;9.962;2022-10-26T17:25:34;5.50;;;2.67;;
6306;SDS011;3186;54.062;9.962;2022-10-26T17:28:02;8.83;;;3.30;;
6306;SDS011;3186;54.062;9.962;2022-10-26T17:30:28;6.17;;;3.30;;
6306;SDS011;3186;54.062;9.962;2022-10-26T17:32:54;6.73;;;3.33;;
6306;SDS011;3186;54.062;9.962;2022-10-26T17:35:20;5.40;;;2.40;;
6306;SDS011;3186;54.062;9.962;2022-10-26T17:37:45;8.50;;;3.70;;
6306;SDS011;3186;54.062;9.962;2022-10-26T17:40:11;8.30;;;3.93;;
6306;SDS011;3186;54.062;9.962;2022-10-26T17:42:37;5.47;;;2.53;;
6306;SDS011;3186;54.062;9.962;2022-10-26T17:45:04;3.97;;;2.47;;
6306;SDS011;3186;54.062;9.962;2022-10-26T17:47:30;7.13;;;3.13;;
6306;SDS011;3186;54.062;9.962;2022-10-26T17:49:56;8.07;;;2.83;;
6306;SDS011;3186;54.062;9.962;2022-10-26T17:52:22;5.37;;;2.70;;
6306;SDS011;3186;54.062;9.962;2022-10-26T17:54:49;6.10;;;2.63;;